Time;durP1;ratioP1;P1;durP2;ratioP2;P2;SDS_P1;SDS_P2;PMS_P1;PMS_P2;Temp;Humidity;BMP_temperature;BMP_pressure;BME280_temperature;BME280_humidity;BME280_pressure;Samples;Min_cycle;Max_cycle;Signal;HPM_P1;HPM_P2
2023/10/02 00:01:56;;;;;;;48.78;43.08;;;;;;;12.84;100.00;95530.78;4889179;29;20051;-85
2023/10/02 00:04:24;;;;;;;46.25;41.30;;;;;;;12.64;100.00;95538.19;4887579;29;20403;-85
2023/10/02 00:07:05;;;;;;;50.92;45.50;;;;;;;12.54;100.00;95547.97;4895990;29;20071;-83
2023/10/02 00:09:41;;;;;;;50.70;44.38;;;;;;;12.37;100.00;95540.38;4898990;29;20041;-83
2023/10/02 00:12:13;;;;;;;45.03;40.10;;;;;;;12.26;100.00;95540.75;5175987;23;20029;-82
2023/10/02 00:17:14;;;;;;;48.13;43.08;;;;;;;12.23;100.00;95541.91;5883586;23;20014;-82
2023/10/02 00:19:40;;;;;;;46.95;41.22;;;;;;;12.35;100.00;95543.16;4891148;29;20036;-86
2023/10/02 00:22:34;;;;;;;45.45;40.60;;;;;;;12.44;100.00;95541.34;4890175;29;20063;-86
2023/10/02 00:25:07;;;;;;;47.97;42.88;;;;;;;12.40;100.00;95540.03;4887483;29;20051;-86
2023/10/02 00:27:34;;;;;;;47.38;42.47;;;;;;;12.34;100.00;95541.53;4889541;29;20096;-85
2023/10/02 00:30:00;;;;;;;45.17;40.42;;;;;;;12.13;100.00;95544.66;4888661;29;20220;-83
2023/10/02 00:32:28;;;;;;;44.95;40.08;;;;;;;11.93;100.00;95538.22;4903390;29;20048;-80
2023/10/02 00:34:55;;;;;;;41.67;37.15;;;;;;;11.98;100.00;95542.88;4915936;29;20024;-81
2023/10/02 00:37:20;;;;;;;46.97;42.33;;;;;;;11.88;100.00;95542.28;4903656;29;20113;-80
2023/10/02 00:42:28;;;;;;;47.47;42.63;;;;;;;11.99;100.00;95545.34;5163935;23;20064;-84
2023/10/02 00:44:55;;;;;;;46.70;41.20;;;;;;;12.09;100.00;95543.38;4892154;29;20037;-83
2023/10/02 00:47:52;;;;;;;46.42;41.33;;;;;;;12.19;100.00;95532.00;4890394;29;20419;-84
2023/10/02 00:50:20;;;;;;;46.40;41.72;;;;;;;12.11;100.00;95535.41;4888187;29;20027;-85
2023/10/02 00:52:56;;;;;;;50.90;43.92;;;;;;;12.16;100.00;95553.91;4886674;29;20024;-85
2023/10/02 00:55:27;;;;;;;45.70;40.90;;;;;;;12.02;100.00;95550.19;4890662;29;20041;-82
2023/10/02 00:57:56;;;;;;;49.70;42.22;;;;;;;11.89;100.00;95549.88;4890709;29;20447;-83
2023/10/02 01:00:30;;;;;;;47.58;40.55;;;;;;;11.89;100.00;95552.47;4873388;29;20608;-84
2023/10/02 01:02:57;;;;;;;46.88;41.80;;;;;;;11.88;100.00;95556.03;4880690;29;20037;-83
2023/10/02 01:05:31;;;;;;;47.33;42.22;;;;;;;12.02;100.00;95557.16;4892367;29;20116;-84
2023/10/02 01:07:58;;;;;;;46.10;41.30;;;;;;;12.05;100.00;95552.47;4889455;29;20119;-86
2023/10/02 01:10:29;;;;;;;45.08;40.15;;;;;;;11.96;100.00;95550.03;4889893;29;20036;-86
2023/10/02 01:13:01;;;;;;;41.75;37.35;;;;;;;11.87;100.00;95554.44;4889335;29;20039;-85
2023/10/02 01:15:28;;;;;;;44.40;39.67;;;;;;;11.92;100.00;95565.13;4890082;29;20047;-83
2023/10/02 01:17:56;;;;;;;46.20;41.28;;;;;;;11.87;100.00;95558.81;4892995;29;20060;-85
2023/10/02 01:20:45;;;;;;;46.00;41.10;;;;;;;11.82;100.00;95558.47;4906879;29;20719;-81
2023/10/02 01:23:12;;;;;;;46.92;41.70;;;;;;;11.83;100.00;95568.72;4912153;29;20844;-82
2023/10/02 01:25:40;;;;;;;45.78;40.95;;;;;;;11.78;100.00;95560.63;4915481;29;20056;-83
2023/10/02 01:28:09;;;;;;;44.05;39.67;;;;;;;11.88;100.00;95571.63;5180766;23;20566;-84
2023/10/02 01:30:35;;;;;;;41.65;37.22;;;;;;;12.01;100.00;95569.34;4906444;29;20522;-87
2023/10/02 01:33:14;;;;;;;43.92;39.40;;;;;;;12.17;100.00;95565.91;4870246;29;20041;-84
2023/10/02 01:35:47;;;;;;;44.17;39.47;;;;;;;12.28;100.00;95551.75;4870856;29;20136;-83
2023/10/02 01:38:21;;;;;;;44.13;39.63;;;;;;;12.30;100.00;95553.22;4885786;29;20494;-83
2023/10/02 01:41:10;;;;;;;46.55;41.30;;;;;;;12.38;100.00;95552.38;4895308;29;20046;-84
2023/10/02 01:43:43;;;;;;;41.45;37.10;;;;;;;12.32;100.00;95553.88;4897273;29;20554;-84
2023/10/02 01:46:10;;;;;;;40.55;36.47;;;;;;;12.29;100.00;95553.41;4897814;29;20047;-84
2023/10/02 01:48:37;;;;;;;39.03;34.97;;;;;;;12.30;100.00;95562.78;4874722;29;20147;-85
2023/10/02 01:51:15;;;;;;;42.67;37.03;;;;;;;12.43;100.00;95565.69;4896032;29;20029;-85
2023/10/02 01:53:45;;;;;;;36.05;32.22;;;;;;;12.59;100.00;95556.06;4896889;29;20037;-84
2023/10/02 01:56:12;;;;;;;33.83;29.63;;;;;;;12.84;100.00;95556.78;4875938;29;20575;-84
2023/10/02 01:58:41;;;;;;;34.15;30.48;;;;;;;12.93;100.00;95549.75;4869388;29;20024;-85
2023/10/02 02:01:09;;;;;;;32.10;28.70;;;;;;;13.00;100.00;95550.69;4883738;29;20048;-86
2023/10/02 02:03:48;;;;;;;32.03;28.83;;;;;;;13.07;100.00;95554.22;4885561;29;20555;-84
2023/10/02 02:06:20;;;;;;;33.45;29.58;;;;;;;13.11;100.00;95548.53;4869678;29;20063;-85
2023/10/02 02:08:52;;;;;;;29.05;25.38;;;;;;;13.08;100.00;95556.69;4884607;29;20044;-89
2023/10/02 02:11:23;;;;;;;28.38;25.45;;;;;;;13.10;100.00;95561.69;4886352;29;20097;-87
2023/10/02 02:13:53;;;;;;;29.27;25.65;;;;;;;13.16;100.00;95554.03;4856335;29;20036;-88
2023/10/02 02:16:38;;;;;;;26.77;23.98;;;;;;;13.16;100.00;95555.84;4885967;29;20137;-88
2023/10/02 02:19:07;;;;;;;25.58;22.92;;;;;;;13.24;100.00;95544.56;4886042;29;20922;-88
2023/10/02 02:21:33;;;;;;;25.83;21.55;;;;;;;13.23;100.00;95541.13;4885413;29;20135;-85
2023/10/02 02:24:08;;;;;;;23.23;20.15;;;;;;;13.27;100.00;95528.59;4868995;29;20132;-86
2023/10/02 02:26:37;;;;;;;23.48;21.08;;;;;;;13.24;100.00;95519.34;4885193;29;20093;-89
2023/10/02 02:29:04;;;;;;;24.27;21.95;;;;;;;13.32;100.00;95527.13;4860466;29;20057;-84
2023/10/02 02:31:30;;;;;;;22.48;20.25;;;;;;;13.27;100.00;95528.59;4876176;29;20044;-85
2023/10/02 02:34:08;;;;;;;28.30;22.80;;;;;;;13.27;100.00;95526.00;4882835;29;20072;-84
2023/10/02 02:36:35;;;;;;;23.27;20.85;;;;;;;13.09;100.00;95506.31;4881277;29;20406;-85
2023/10/02 02:39:15;;;;;;;26.20;22.90;;;;;;;13.19;100.00;95521.69;4884619;29;20020;-87
2023/10/02 02:41:43;;;;;;;27.23;22.15;;;;;;;13.13;100.00;95517.94;4885431;29;20032;-85
2023/10/02 02:46:54;;;;;;;25.15;20.63;;;;;;;13.04;100.00;95521.56;4887621;29;20427;-88
2023/10/02 02:49:19;;;;;;;26.92;21.38;;;;;;;13.03;100.00;95521.75;4886578;29;20033;-87
2023/10/02 02:51:48;;;;;;;23.38;20.02;;;;;;;12.98;100.00;95516.22;4891729;29;20263;-85
2023/10/02 02:54:15;;;;;;;21.17;18.73;;;;;;;12.98;100.00;95509.25;4892186;29;20043;-86
2023/10/02 02:56:40;;;;;;;21.08;18.88;;;;;;;12.97;100.00;95497.22;4891409;29;20033;-86
2023/10/02 02:59:08;;;;;;;19.30;17.35;;;;;;;12.87;100.00;95499.25;4889883;29;20097;-89
2023/10/02 03:01:34;;;;;;;21.27;18.20;;;;;;;12.85;100.00;95497.78;4889140;29;20043;-87
2023/10/02 03:04:11;;;;;;;22.90;16.17;;;;;;;12.82;100.00;95504.13;4871211;29;20057;-89
2023/10/02 03:06:37;;;;;;;17.52;15.73;;;;;;;12.81;100.00;95494.72;4871751;29;20041;-87
2023/10/02 03:09:05;;;;;;;18.05;16.15;;;;;;;12.84;100.00;95484.00;4876319;29;20036;-90
2023/10/02 03:11:32;;;;;;;15.47;13.93;;;;;;;12.82;100.00;95490.31;4894235;29;20068;-90
2023/10/02 03:14:11;;;;;;;15.15;13.70;;;;;;;12.85;100.00;95477.78;5007626;23;20303;-86
2023/10/02 03:16:38;;;;;;;14.02;12.23;;;;;;;12.93;100.00;95466.56;4933154;29;20024;-78
2023/10/02 03:19:03;;;;;;;13.32;12.02;;;;;;;12.93;100.00;95453.56;5190418;23;20057;-86
2023/10/02 03:21:30;;;;;;;17.13;12.02;;;;;;;12.98;100.00;95446.03;4889744;29;20414;-85
2023/10/02 03:23:59;;;;;;;15.85;11.45;;;;;;;12.95;100.00;95439.38;4893736;29;20488;-86
2023/10/02 03:29:21;;;;;;;12.43;11.13;;;;;;;12.83;100.00;95452.97;5108784;23;20057;-88
2023/10/02 03:31:51;;;;;;;16.13;10.70;;;;;;;12.88;100.00;95443.66;4871667;29;20517;-92
2023/10/02 03:34:27;;;;;;;16.42;10.10;;;;;;;12.88;100.00;95442.84;4873097;29;20177;-87
2023/10/02 03:39:59;;;;;;;12.07;9.68;;;;;;;12.83;100.00;95425.19;5238592;23;20537;-91
2023/10/02 03:42:36;;;;;;;12.43;9.50;;;;;;;12.86;100.00;95413.63;4889471;29;20095;-92
2023/10/02 03:45:04;;;;;;;11.23;9.10;;;;;;;12.78;100.00;95414.47;4890679;29;20597;-87
2023/10/02 03:47:30;;;;;;;14.60;8.73;;;;;;;12.83;100.00;95406.97;4891733;29;20076;-90
2023/10/02 03:50:00;;;;;;;11.43;8.52;;;;;;;12.74;100.00;95412.41;4893800;29;20562;-89
2023/10/02 03:52:32;;;;;;;15.32;9.43;;;;;;;12.69;100.00;95420.72;4892274;29;20414;-92
2023/10/02 03:55:10;;;;;;;10.55;7.95;;;;;;;12.69;100.00;95415.50;4964301;23;20547;-87
2023/10/02 04:08:21;;;;;;;10.07;6.88;;;;;;;12.82;100.00;95399.34;5159046;23;20278;-81
2023/10/02 04:10:51;;;;;;;9.07;6.57;;;;;;;12.79;100.00;95397.09;4888385;29;20131;-91
2023/10/02 04:13:21;;;;;;;12.57;7.50;;;;;;;12.77;100.00;95399.88;4906322;29;20904;-86
2023/10/02 04:15:48;;;;;;;17.20;7.32;;;;;;;12.76;100.00;95411.25;4892589;29;20051;-85
2023/10/02 04:18:45;;;;;;;11.40;6.30;;;;;;;12.72;100.00;95409.97;4893011;29;20050;-88
2023/10/02 04:21:05;;;;;;;9.10;7.35;;;;;;;12.71;100.00;95416.16;4890279;29;20483;-89
2023/10/02 04:23:38;;;;;;;9.18;6.57;;;;;;;12.64;100.00;95425.63;4891529;29;20524;-87
2023/10/02 04:26:05;;;;;;;9.93;6.97;;;;;;;12.61;100.00;95424.19;4874711;29;20029;-88
2023/10/02 04:28:47;;;;;;;10.10;7.32;;;;;;;12.55;100.00;95431.84;4863581;29;20346;-90
2023/10/02 04:31:20;;;;;;;11.73;7.55;;;;;;;12.43;100.00;95433.19;4889912;29;20028;-90
2023/10/02 04:33:52;;;;;;;11.68;7.25;;;;;;;12.40;100.00;95434.34;4873762;29;20028;-89
2023/10/02 04:36:24;;;;;;;10.95;7.20;;;;;;;12.42;100.00;95441.97;4888469;29;20491;-89
2023/10/02 04:38:49;;;;;;;8.35;6.88;;;;;;;12.45;100.00;95434.66;4890088;29;20029;-90
2023/10/02 04:41:26;;;;;;;8.77;6.88;;;;;;;12.55;100.00;95432.63;4889079;29;20118;-89
2023/10/02 04:43:57;;;;;;;8.52;7.10;;;;;;;12.63;100.00;95437.00;4874607;29;20036;-88
2023/10/02 04:46:25;;;;;;;14.65;7.03;;;;;;;12.64;100.00;95430.81;4887099;29;20080;-90
2023/10/02 04:48:59;;;;;;;13.30;7.30;;;;;;;12.67;100.00;95428.69;4883002;29;20151;-88
2023/10/02 04:51:30;;;;;;;7.75;6.65;;;;;;;12.66;100.00;95434.88;4869197;29;20076;-91
2023/10/02 04:53:57;;;;;;;10.93;6.57;;;;;;;12.76;100.00;95429.44;4868676;29;20033;-90
2023/10/02 04:56:24;;;;;;;13.25;7.20;;;;;;;13.00;100.00;95426.66;4870703;29;20567;-92
2023/10/02 04:58:51;;;;;;;20.30;7.00;;;;;;;13.14;100.00;95425.94;4868591;29;20497;-91
2023/10/02 05:01:43;;;;;;;10.60;7.10;;;;;;;13.36;100.00;95426.91;4870725;29;20060;-91
2023/10/02 05:04:16;;;;;;;13.48;6.95;;;;;;;13.56;100.00;95422.81;4868371;29;20540;-90
2023/10/02 05:06:52;;;;;;;13.00;7.22;;;;;;;13.67;100.00;95417.22;4868905;29;20057;-88
2023/10/02 05:12:22;;;;;;;8.55;6.57;;;;;;;13.99;100.00;95416.03;4848957;29;20029;-90
2023/10/02 05:14:51;;;;;;;14.25;6.70;;;;;;;14.34;100.00;95418.91;4875099;29;21102;-91
2023/10/02 05:17:17;;;;;;;10.07;6.80;;;;;;;14.69;100.00;95412.91;4855361;29;20056;-90
2023/10/02 05:19:56;;;;;;;7.57;6.88;;;;;;;14.71;100.00;95423.94;4853274;29;20059;-91
2023/10/02 05:22:24;;;;;;;;;;;;;;;14.03;100.00;95432.13;4875151;29;20111;-91
2023/10/02 05:24:58;;;;;;;19.83;8.43;;;;;;;13.79;100.00;95448.81;4860868;29;19915;-91
2023/10/02 05:27:30;;;;;;;15.40;9.15;;;;;;;14.14;100.00;95439.47;4866053;29;20030;-91
2023/10/02 05:30:05;;;;;;;10.82;8.55;;;;;;;14.08;100.00;95443.63;4865892;29;20097;-91
2023/10/02 05:32:35;;;;;;;14.00;8.55;;;;;;;14.46;100.00;95438.31;4869442;29;20032;-88
2023/10/02 05:37:43;;;;;;;11.90;7.75;;;;;;;14.98;100.00;95428.47;4860623;29;20064;-86
2023/10/02 05:48:11;;;;;;;10.75;7.70;;;;;;;17.05;100.00;95419.66;4875083;29;20047;-85
2023/10/02 05:50:47;;;;;;;10.18;7.85;;;;;;;16.34;100.00;95419.22;4849618;29;20041;-86
2023/10/02 05:53:15;;;;;;;12.65;9.18;;;;;;;16.93;100.00;95430.91;4840463;29;20042;-83
2023/10/02 05:55:57;;;;;;;11.85;8.10;;;;;;;18.20;100.00;95427.13;4874799;29;20021;-83
2023/10/02 05:58:32;;;;;;;8.68;7.88;;;;;;;18.63;97.36;95414.28;4872891;29;20033;-84
2023/10/02 06:01:04;;;;;;;13.40;8.77;;;;;;;18.92;97.11;95426.88;4857946;29;20043;-83
2023/10/02 06:03:36;;;;;;;15.70;8.98;;;;;;;19.08;92.69;95423.75;4861732;29;20052;-83
2023/10/02 06:06:21;;;;;;;9.68;8.48;;;;;;;19.71;87.59;95418.47;4871035;29;20036;-83
2023/10/02 06:08:52;;;;;;;8.30;7.57;;;;;;;21.20;76.34;95432.81;4849140;29;20378;-85
2023/10/02 06:11:26;;;;;;;10.20;7.25;;;;;;;21.82;70.35;95431.47;4863703;29;20049;-85
2023/10/02 06:13:56;;;;;;;12.70;7.47;;;;;;;22.93;64.98;95438.34;4866423;29;20101;-85
2023/10/02 06:16:24;;;;;;;12.60;7.85;;;;;;;23.95;61.03;95437.25;4879634;29;20598;-84
2023/10/02 06:19:02;;;;;;;9.23;6.70;;;;;;;24.93;56.03;95438.34;4864870;29;20029;-81
2023/10/02 06:21:31;;;;;;;8.35;6.90;;;;;;;25.15;53.58;95429.31;4854156;29;20543;-82
2023/10/02 06:23:58;;;;;;;10.90;6.57;;;;;;;24.55;53.99;95437.34;4862279;29;20128;-82
2023/10/02 06:26:29;;;;;;;9.40;6.13;;;;;;;25.98;48.46;95432.47;4852797;29;20957;-82
2023/10/02 06:29:16;;;;;;;10.68;6.32;;;;;;;24.75;52.86;95441.31;4861319;29;20049;-82
2023/10/02 06:31:46;;;;;;;10.20;6.93;;;;;;;22.62;60.44;95444.03;4855202;29;20041;-82
2023/10/02 06:34:16;;;;;;;9.80;7.53;;;;;;;22.42;62.64;95447.88;4859156;29;20064;-83
2023/10/02 06:36:48;;;;;;;8.35;6.72;;;;;;;21.45;65.15;95451.09;4865218;29;20032;-82
2023/10/02 06:39:21;;;;;;;8.35;7.55;;;;;;;20.76;71.79;95448.97;4862966;29;20037;-81
2023/10/02 06:41:46;;;;;;;10.05;6.95;;;;;;;25.09;54.51;95446.25;4879950;29;20112;-81
2023/10/02 06:44:15;;;;;;;9.13;6.97;;;;;;;26.93;47.54;95460.72;4859241;29;20112;-81
2023/10/02 06:46:53;;;;;;;8.70;6.38;;;;;;;26.73;46.42;95459.53;4861424;29;20053;-80
2023/10/02 06:49:23;;;;;;;7.93;4.82;;;;;;;28.48;41.53;95461.97;4862076;29;20044;-79
2023/10/02 06:51:49;;;;;;;7.13;5.13;;;;;;;28.65;39.87;95457.16;4860090;29;20223;-81
2023/10/02 06:54:19;;;;;;;8.47;5.33;;;;;;;28.25;41.04;95458.03;4871723;29;20128;-78
2023/10/02 06:56:47;;;;;;;8.25;4.95;;;;;;;28.23;40.10;95459.34;4862102;29;20048;-81
2023/10/02 06:59:13;;;;;;;7.18;4.45;;;;;;;28.99;38.01;95459.19;4866654;29;20029;-82
2023/10/02 07:02:04;;;;;;;10.57;5.15;;;;;;;28.68;38.05;95466.50;4864847;29;20463;-81
2023/10/02 07:04:30;;;;;;;5.95;4.10;;;;;;;29.04;37.27;95461.81;4874703;29;20044;-84
2023/10/02 07:07:02;;;;;;;7.53;4.68;;;;;;;29.29;36.89;95456.38;4861447;29;20056;-83
2023/10/02 07:09:33;;;;;;;7.35;4.80;;;;;;;30.12;36.39;95456.38;4864299;29;20149;-81
2023/10/02 07:12:08;;;;;;;8.55;5.05;;;;;;;29.87;35.94;95459.25;4864650;29;20081;-81
2023/10/02 07:14:36;;;;;;;7.72;4.43;;;;;;;29.95;35.25;95461.34;4862450;29;20085;-80
2023/10/02 07:17:11;;;;;;;9.57;4.70;;;;;;;29.68;36.03;95457.22;4860888;29;20048;-82
2023/10/02 07:19:48;;;;;;;6.03;4.50;;;;;;;30.49;35.22;95459.28;4874232;29;20053;-82
2023/10/02 07:22:16;;;;;;;8.47;4.53;;;;;;;30.16;35.30;95460.06;4860946;29;20051;-82
2023/10/02 07:24:46;;;;;;;7.53;3.97;;;;;;;30.45;34.73;95463.59;4880226;29;20037;-81
2023/10/02 07:27:23;;;;;;;7.43;5.00;;;;;;;30.14;34.57;95464.91;4863329;29;20037;-82
2023/10/02 07:29:53;;;;;;;6.95;4.00;;;;;;;29.44;35.82;95466.22;4861449;29;20065;-82
2023/10/02 07:32:22;;;;;;;8.85;4.40;;;;;;;30.26;34.64;95468.00;4873628;29;20176;-85
2023/10/02 07:34:53;;;;;;;11.52;4.80;;;;;;;29.93;34.46;95471.50;4844943;29;20029;-83
2023/10/02 07:37:22;;;;;;;8.68;4.53;;;;;;;29.72;34.95;95468.97;4882688;29;20080;-78
2023/10/02 07:39:52;;;;;;;9.48;4.60;;;;;;;29.46;35.61;95464.03;4865804;29;20846;-86
2023/10/02 07:42:18;;;;;;;6.00;4.78;;;;;;;27.51;38.11;95463.06;4857973;29;20593;-81
2023/10/02 07:44:45;;;;;;;10.77;4.40;;;;;;;23.77;46.56;95465.81;4846903;29;20044;-82
2023/10/02 07:47:16;;;;;;;6.05;4.50;;;;;;;23.21;48.83;95480.69;4878362;29;20041;-80
2023/10/02 07:49:45;;;;;;;8.73;5.32;;;;;;;23.21;49.79;95470.09;4877509;29;20040;-81
2023/10/02 07:52:26;;;;;;;6.40;4.60;;;;;;;23.33;50.41;95470.84;4861777;29;20029;-81
2023/10/02 07:54:58;;;;;;;11.80;5.22;;;;;;;23.34;50.02;95467.16;4849435;29;20168;-82
2023/10/02 07:57:30;;;;;;;13.07;4.65;;;;;;;23.19;49.76;95466.88;4861669;29;20033;-81
2023/10/02 07:59:57;;;;;;;12.70;5.55;;;;;;;22.83;51.06;95477.81;4849323;29;20039;-80
2023/10/02 08:02:23;;;;;;;8.40;4.57;;;;;;;23.12;51.09;95476.00;4862172;29;20033;-81
2023/10/02 08:04:52;;;;;;;13.02;4.63;;;;;;;23.16;51.00;95470.00;4877607;29;20029;-82
2023/10/02 08:07:18;;;;;;;;;;;;;;;22.97;50.47;95479.13;4857106;29;20512;-80
2023/10/02 08:09:47;;;;;;;7.60;4.88;;;;;;;23.07;50.39;95466.13;4852110;29;19922;-81
2023/10/02 08:12:29;;;;;;;12.95;5.28;;;;;;;23.10;51.78;95466.47;4865111;29;20040;-81
2023/10/02 08:14:59;;;;;;;11.27;5.05;;;;;;;23.24;50.58;95474.13;4858466;29;20085;-78
2023/10/02 08:17:59;;;;;;;8.90;4.85;;;;;;;23.21;51.43;95479.88;4864016;29;20506;-81
2023/10/02 08:20:16;;;;;;;10.57;5.50;;;;;;;23.34;51.12;95474.31;4859336;29;20105;-82
2023/10/02 08:22:48;;;;;;;9.05;5.50;;;;;;;23.07;52.18;95480.16;4859683;29;20037;-78
2023/10/02 08:25:14;;;;;;;9.75;5.10;;;;;;;23.45;51.50;95484.84;4875457;29;20069;-78
2023/10/02 08:27:42;;;;;;;6.10;4.85;;;;;;;23.66;51.79;95486.03;4862558;29;20042;-76
2023/10/02 08:32:53;;;;;;;12.50;5.45;;;;;;;23.55;50.93;95479.75;4876620;29;20044;-82
2023/10/02 08:35:19;;;;;;;18.38;6.88;;;;;;;23.91;50.78;95477.69;4864382;29;20169;-82
2023/10/02 08:37:54;;;;;;;10.18;5.63;;;;;;;23.80;49.56;95473.25;4867506;29;20041;-79
2023/10/02 08:40:19;;;;;;;6.50;5.18;;;;;;;23.82;49.96;95477.28;4865864;29;20041;-80
2023/10/02 08:42:46;;;;;;;9.85;5.88;;;;;;;23.70;49.35;95467.78;4865067;29;20048;-79
2023/10/02 08:45:18;;;;;;;6.78;5.60;;;;;;;23.63;49.61;95468.75;4866099;29;20450;-78
2023/10/02 08:47:47;;;;;;;10.38;5.50;;;;;;;23.73;50.75;95462.06;4851431;29;20157;-79
2023/10/02 08:50:15;;;;;;;11.85;5.53;;;;;;;24.14;49.54;95464.31;4850986;29;20569;-79
2023/10/02 08:52:53;;;;;;;7.88;5.75;;;;;;;24.42;47.99;95468.69;4875709;29;20380;-78
2023/10/02 08:55:51;;;;;;;10.80;5.75;;;;;;;24.00;48.05;95458.53;4850942;29;20408;-79
2023/10/02 08:58:20;;;;;;;9.45;5.88;;;;;;;24.23;47.09;95459.41;4857994;29;20036;-81
2023/10/02 09:03:44;;;;;;;9.93;4.97;;;;;;;24.04;46.92;95458.84;4858958;29;20063;-82
2023/10/02 09:06:31;;;;;;;10.10;5.70;;;;;;;24.76;46.50;95450.84;4863523;29;20049;-80
2023/10/02 09:11:44;;;;;;;9.15;4.80;;;;;;;24.68;46.06;95441.47;4866918;29;20055;-81
2023/10/02 09:16:40;;;;;;;7.80;4.97;;;;;;;24.80;44.57;95444.81;4878729;29;20064;-80
2023/10/02 09:19:28;;;;;;;9.93;5.13;;;;;;;24.69;44.41;95447.59;4862432;29;20073;-83
2023/10/02 09:22:06;;;;;;;5.72;5.00;;;;;;;25.13;44.84;95446.53;4869066;29;20063;-82
2023/10/02 09:24:34;;;;;;;10.43;5.28;;;;;;;24.90;44.49;95442.31;4878481;29;20526;-82
2023/10/02 09:27:20;;;;;;;9.15;5.15;;;;;;;24.94;43.51;95437.31;4861198;29;21873;-80
2023/10/02 09:29:46;;;;;;;11.77;5.55;;;;;;;25.27;43.81;95433.69;4848343;29;20110;-79
2023/10/02 09:32:21;;;;;;;7.53;5.13;;;;;;;24.79;43.63;95434.47;4860983;29;20424;-78
2023/10/02 09:35:10;;;;;;;9.98;5.25;;;;;;;24.64;44.50;95429.75;4861726;29;20040;-78
2023/10/02 09:37:37;;;;;;;10.23;5.40;;;;;;;24.79;43.11;95432.59;4865924;29;20045;-78
2023/10/02 09:40:04;;;;;;;5.47;4.70;;;;;;;25.00;43.50;95428.38;4847426;29;20064;-84
2023/10/02 09:42:33;;;;;;;10.43;5.03;;;;;;;25.23;42.59;95436.03;4856658;29;20037;-79
2023/10/02 09:45:08;;;;;;;8.05;5.30;;;;;;;25.06;42.11;95436.13;4847953;29;20298;-78
2023/10/02 09:47:34;;;;;;;8.25;5.25;;;;;;;25.15;42.11;95431.97;4857864;29;20033;-82
2023/10/02 09:50:12;;;;;;;6.45;4.80;;;;;;;24.34;42.50;95427.50;4850626;29;20540;-81
2023/10/02 09:52:39;;;;;;;;;;;;;;;24.80;41.75;95425.44;4875670;29;20037;-82
2023/10/02 09:55:16;;;;;;;10.65;5.45;;;;;;;24.59;42.16;95433.13;4861545;29;19923;-82
2023/10/02 09:57:49;;;;;;;10.20;5.57;;;;;;;25.46;42.13;95430.41;4846138;29;20043;-80
2023/10/02 10:03:23;;;;;;;8.95;5.90;;;;;;;25.01;41.29;95428.09;4864175;29;20056;-78
2023/10/02 10:06:15;;;;;;;10.77;5.95;;;;;;;25.01;40.55;95429.97;4864380;29;20071;-77
2023/10/02 10:11:40;;;;;;;10.57;6.00;;;;;;;25.09;41.65;95430.31;4864561;29;20146;-79
2023/10/02 10:14:42;;;;;;;8.77;6.38;;;;;;;25.33;41.82;95422.88;4862288;29;20115;-79
2023/10/02 10:20:22;;;;;;;9.63;6.13;;;;;;;25.46;41.38;95416.38;4851469;29;20047;-80
2023/10/02 10:22:53;;;;;;;13.63;6.78;;;;;;;24.65;41.15;95418.94;4862432;29;20037;-76
2023/10/02 10:27:58;;;;;;;10.35;6.85;;;;;;;24.59;41.03;95417.25;4860041;29;20049;-78
2023/10/02 10:30:39;;;;;;;8.98;6.03;;;;;;;24.42;41.72;95403.28;4876692;29;20654;-79
2023/10/02 10:35:51;;;;;;;11.50;6.28;;;;;;;24.31;42.85;95409.47;4862902;29;20496;-81
2023/10/02 10:38:33;;;;;;;6.93;5.95;;;;;;;23.93;42.21;95398.84;4859392;29;20036;-82
2023/10/02 10:41:05;;;;;;;8.10;6.28;;;;;;;23.93;42.05;95386.41;4859019;29;20392;-78
2023/10/02 10:43:44;;;;;;;8.07;6.35;;;;;;;23.97;42.91;95387.53;4859766;29;20029;-80
2023/10/02 10:46:13;;;;;;;11.05;6.65;;;;;;;24.33;43.84;95391.50;4845617;29;20727;-78
2023/10/02 10:48:40;;;;;;;;;;;;;;;24.10;44.22;95389.03;4860746;29;20078;-79
2023/10/02 10:51:20;;;;;;;11.73;6.40;;;;;;;24.44;43.56;95379.97;4859851;29;19980;-81
2023/10/02 10:53:47;;;;;;;7.22;6.53;;;;;;;24.19;44.47;95371.72;4859669;29;20164;-78
2023/10/02 10:56:19;;;;;;;8.73;6.53;;;;;;;24.37;43.10;95376.69;4878375;29;20120;-78
2023/10/02 10:58:47;;;;;;;9.52;6.47;;;;;;;24.24;43.69;95373.63;4856398;29;20028;-78
2023/10/02 11:01:16;;;;;;;8.38;6.40;;;;;;;24.13;44.12;95372.69;4849991;29;20051;-78
2023/10/02 11:03:43;;;;;;;9.73;6.80;;;;;;;24.38;44.50;95373.00;4861384;29;20048;-78
2023/10/02 11:06:10;;;;;;;12.80;6.90;;;;;;;24.23;43.23;95378.13;4869177;29;20044;-76
2023/10/02 11:08:39;;;;;;;9.38;6.05;;;;;;;24.39;44.34;95371.16;4856614;29;20084;-78
2023/10/02 11:11:18;;;;;;;9.85;6.40;;;;;;;24.37;43.14;95363.44;4863351;29;20029;-79
2023/10/02 11:13:52;;;;;;;8.70;7.10;;;;;;;24.42;43.70;95363.53;4869054;29;20033;-78
2023/10/02 11:16:39;;;;;;;9.63;7.20;;;;;;;24.59;44.05;95364.25;4864817;29;20044;-78
2023/10/02 11:19:13;;;;;;;8.68;7.47;;;;;;;24.78;43.16;95364.75;4869122;29;20499;-80
2023/10/02 11:21:45;;;;;;;10.20;6.32;;;;;;;24.62;43.51;95360.34;4859846;29;20033;-79
2023/10/02 11:24:21;;;;;;;10.15;7.20;;;;;;;24.64;43.30;95348.44;4858870;29;20468;-80
2023/10/02 11:26:47;;;;;;;7.82;6.35;;;;;;;24.37;42.63;95355.50;4868880;29;20041;-78
2023/10/02 11:29:20;;;;;;;7.97;7.18;;;;;;;24.56;42.84;95356.03;4866634;29;20033;-78
2023/10/02 11:31:57;;;;;;;13.00;6.97;;;;;;;24.23;42.93;95346.34;4870370;29;20048;-79
2023/10/02 11:34:22;;;;;;;8.40;6.45;;;;;;;23.71;43.32;95353.81;4857814;29;20040;-79
2023/10/02 11:36:53;;;;;;;9.70;6.45;;;;;;;23.15;44.07;95344.13;4876743;29;20037;-79
2023/10/02 11:39:27;;;;;;;13.43;7.40;;;;;;;23.41;44.83;95343.53;4857843;29;20034;-79
2023/10/02 11:41:52;;;;;;;15.82;7.28;;;;;;;22.85;44.81;95344.44;4866781;29;20037;-80
2023/10/02 11:44:18;;;;;;;13.15;7.20;;;;;;;23.03;45.85;95346.06;4853718;29;20543;-79
2023/10/02 11:46:43;;;;;;;9.10;7.13;;;;;;;23.27;44.60;95342.25;4855770;29;20045;-80
2023/10/02 11:49:10;;;;;;;9.25;6.57;;;;;;;24.03;42.55;95341.56;4882517;29;20696;-78
2023/10/02 11:51:36;;;;;;;10.18;6.97;;;;;;;23.50;43.13;95341.31;4849466;29;20492;-79
2023/10/02 11:54:05;;;;;;;7.70;6.40;;;;;;;23.80;43.98;95341.75;4852821;29;20048;-76
2023/10/02 11:56:31;;;;;;;7.93;7.13;;;;;;;24.00;41.89;95342.03;4866008;29;20639;-81
2023/10/02 11:58:57;;;;;;;11.13;7.78;;;;;;;23.77;42.97;95344.09;4868174;29;20032;-79
2023/10/02 12:01:23;;;;;;;9.48;7.15;;;;;;;23.54;44.13;95342.41;4869217;29;20124;-77
2023/10/02 12:03:55;;;;;;;12.82;7.03;;;;;;;23.41;44.39;95348.03;4868922;29;20185;-80
2023/10/02 12:06:23;;;;;;;6.82;6.00;;;;;;;23.36;43.22;95342.63;4861965;29;20036;-80
2023/10/02 12:08:50;;;;;;;7.30;6.60;;;;;;;23.30;43.17;95341.75;4867544;29;20567;-80
2023/10/02 12:11:15;;;;;;;7.47;6.40;;;;;;;23.99;42.29;95331.69;4867651;29;20037;-81
2023/10/02 12:13:44;;;;;;;8.02;6.43;;;;;;;23.98;42.82;95336.19;4866346;29;20047;-79
2023/10/02 12:16:11;;;;;;;9.35;6.68;;;;;;;23.66;43.09;95329.94;4852868;29;20562;-80
2023/10/02 12:18:41;;;;;;;9.27;6.13;;;;;;;23.83;43.36;95327.22;4874630;29;20423;-79
2023/10/02 12:21:08;;;;;;;12.25;6.90;;;;;;;24.10;43.11;95323.66;4863021;29;20037;-81
2023/10/02 12:23:43;;;;;;;11.70;6.93;;;;;;;23.76;43.60;95329.28;4867628;29;20137;-79
2023/10/02 12:26:20;;;;;;;9.95;7.22;;;;;;;23.41;43.93;95326.88;4871149;29;20085;-81
2023/10/02 12:28:46;;;;;;;10.60;6.55;;;;;;;23.52;44.10;95318.88;4864506;29;20038;-82
2023/10/02 12:31:17;;;;;;;8.73;6.70;;;;;;;23.44;43.39;95318.44;4873362;29;20132;-79
2023/10/02 12:33:56;;;;;;;9.55;6.72;;;;;;;23.09;43.58;95316.81;4858085;29;20416;-79
2023/10/02 12:36:22;;;;;;;;;;;;;;;22.99;43.67;95324.56;4849223;29;20045;-80
2023/10/02 12:38:50;;;;;;;8.65;7.15;;;;;;;22.88;43.92;95314.88;4840192;29;19924;-81
2023/10/02 12:41:17;;;;;;;8.15;7.00;;;;;;;23.10;43.22;95309.69;4865821;29;20044;-81
2023/10/02 12:43:44;;;;;;;9.45;6.70;;;;;;;23.17;43.87;95299.78;4862744;29;20128;-82
2023/10/02 12:46:15;;;;;;;8.15;6.38;;;;;;;22.95;44.22;95312.09;4848662;29;20121;-81
2023/10/02 12:48:46;;;;;;;7.13;6.00;;;;;;;22.92;44.19;95309.94;4855298;29;20041;-79